Onbewolkt
Onbewolkt
Licht bewolkt
Wisselend bewolkt
Zwaar bewolkt
Geheel bewolkt
Geheel bewolkt
(°C)
11°
12°
13°
14°
14°
14°
13°
(°C)
NNW
NNW
NNW
NNW
NNW
NNW
NW
(km/u)
9-26
18-29
14-31
11-32
9-28
9-24
9-24
(mm)
0
0
0
0
0
0
0
(%)
0
0
0
0
0
0
0

Zonverhoging

/ 30.3°
sun-icon
UV 2
08:12
18:23
Wassende maan (76°)
11:42
24:00

METAR voor Alcantarilla (LERI)

Tijd Voorwaarden Temperatuur/
Dauwpunt
Wind Zicht Weer Wolken Luchtdruk Wijzigen Ruw
VFR 11°C / -4°C 360º variable 250º to 050º 5kt >10km - Clouds and Visibility OK 1015 No Significant change LERI 271030Z 36005KT 250V050 CAVOK 11/M04 Q1015 NOSIG
VFR 10°C / -3°C variable 3kt >10km - Clouds and Visibility OK 1015 No Significant change LERI 271000Z VRB03KT CAVOK 10/M03 Q1015 NOSIG
VFR 9°C / -3°C variable 1kt >10km - Clouds and Visibility OK 1015 No Significant change LERI 270930Z VRB01KT CAVOK 09/M03 Q1015 NOSIG
VFR 8°C / -3°C variable 1kt >10km - Clouds and Visibility OK 1015 No Significant change LERI 270900Z VRB01KT CAVOK 08/M03 Q1015 NOSIG
VFR 5°C / -2°C variable 1kt >10km - Clouds and Visibility OK 1015 No Significant change LERI 270830Z VRB01KT CAVOK 05/M02 Q1015 NOSIG
VFR 3°C / -2°C variable 0kt >10km - Clouds and Visibility OK 1015 No Significant change LERI 270800Z 00000KT CAVOK 03/M02 Q1015 NOSIG
VFR 2°C / -3°C variable 1kt >10km - Clouds and Visibility OK 1014 No Significant change LERI 270730Z VRB01KT CAVOK 02/M03 Q1014 NOSIG
VFR 0°C / -4°C 10º variable 320º to 070º 3kt >10km - Clouds and Visibility OK 1014 No Significant change LERI 270700Z 01003KT 320V070 CAVOK 00/M04 Q1014 NOSIG
VFR 3°C / -3°C 270º 5kt >10km - Clouds and Visibility OK 1014 No Significant change LERI 270630Z 27005KT CAVOK 03/M03 Q1014 NOSIG
VFR 1°C / -3°C 230º 4kt >10km - Clouds and Visibility OK 1014 No Significant change LERI 270600Z 23004KT CAVOK 01/M03 Q1014 NOSIG
VFR 10°C / -1°C 290º variable 270º to 330º 10kt >10km - Clouds and Visibility OK 1015 No Significant change LERI 261800Z 29010KT 270V330 CAVOK 10/M01 Q1015 NOSIG
VFR 11°C / -2°C 290º 11kt >10km - Few Clouds 6200ft 1015 No Significant change LERI 261730Z 29011KT 9999 FEW062 11/M02 Q1015 NOSIG
VFR 12°C / -2°C 300º variable 260º to 330º 12kt >10km - Scattered Clouds 5300ft 1015 No Significant change LERI 261700Z 30012KT 260V330 9999 SCT053 12/M02 Q1015 NOSIG
VFR 13°C / -2°C 290º variable 250º to 340º 12kt >10km - Scattered Clouds 6100ft 1015 No Significant change LERI 261630Z 29012KT 250V340 9999 SCT061 13/M02 Q1015 NOSIG
VFR 13°C / -2°C 330º variable 300º to 360º 10kt >10km - Scattered Clouds 5500ft 1015 No Significant change LERI 261600Z 33010KT 300V360 9999 SCT055 13/M02 Q1015 NOSIG
VFR 13°C / -2°C 290º variable 250º to 330º 13kt >10km - Scattered Clouds 5600ft 1015 No Significant change LERI 261530Z 29013KT 250V330 9999 SCT056 13/M02 Q1015 NOSIG
VFR 13°C / -2°C 280º variable 250º to 310º 15kt >10km - Scattered Clouds 5500ft 1015 No Significant change LERI 261500Z 28015KT 250V310 9999 SCT055 13/M02 Q1015 NOSIG
VFR 13°C / -2°C 290º variable 260º to 330º 12kt >10km - Scattered Clouds 5400ft 1015 No Significant change LERI 261430Z 29012KT 260V330 9999 SCT054 13/M02 Q1015 NOSIG
VFR 13°C / -2°C 330º variable 280º to 020º 8kt >10km - Scattered Clouds 5200ft 1015 No Significant change LERI 261400Z 33008KT 280V020 9999 SCT052 13/M02 Q1015 NOSIG
VFR 12°C / -2°C 290º variable 240º to 330º 14kt >10km - Few Clouds 4800ft
Scattered Clouds 5800ft
1015 No Significant change LERI 261330Z 29014KT 240V330 9999 FEW048 SCT058 12/M02 Q1015 NOSIG
VFR 12°C / -2°C 340º variable 300º to 030º 8kt >10km - Few Clouds 4800ft
Scattered Clouds 5700ft
1016 No Significant change LERI 261300Z 34008KT 300V030 9999 FEW048 SCT057 12/M02 Q1016 NOSIG
VFR 12°C / -2°C 320º variable 260º to 350º 12kt >10km - Few Clouds 4500ft
Scattered Clouds 5700ft
1016 No Significant change LERI 261230Z 32012KT 260V350 9999 FEW045 SCT057 12/M02 Q1016 NOSIG
VFR 12°C / -2°C 310º variable 280º to 340º 12kt >10km - Few Clouds 4500ft 1016 No Significant change LERI 261200Z 31012KT 280V340 9999 FEW045 12/M02 Q1016 NOSIG
VFR 12°C / -2°C 320º variable 280º to 350º 9kt >10km - Clouds and Visibility OK 1017 No Significant change LERI 261130Z 32009KT 280V350 CAVOK 12/M02 Q1017 NOSIG

VFR

11°C / -4°C

[Meer]
Wind 360º variable 250º to 050º 5kt
Zicht >10km
Weer -
Wolken Clouds and Visibility OK
Luchtdruk 1015
Wijzigen No Significant change
Ruw LERI 271030Z 36005KT 250V050 CAVOK 11/M04 Q1015 NOSIG

VFR

10°C / -3°C

[Meer]
Wind variable 3kt
Zicht >10km
Weer -
Wolken Clouds and Visibility OK
Luchtdruk 1015
Wijzigen No Significant change
Ruw LERI 271000Z VRB03KT CAVOK 10/M03 Q1015 NOSIG

VFR

9°C / -3°C

[Meer]
Wind variable 1kt
Zicht >10km
Weer -
Wolken Clouds and Visibility OK
Luchtdruk 1015
Wijzigen No Significant change
Ruw LERI 270930Z VRB01KT CAVOK 09/M03 Q1015 NOSIG

VFR

8°C / -3°C

[Meer]
Wind variable 1kt
Zicht >10km
Weer -
Wolken Clouds and Visibility OK
Luchtdruk 1015
Wijzigen No Significant change
Ruw LERI 270900Z VRB01KT CAVOK 08/M03 Q1015 NOSIG

VFR

5°C / -2°C

[Meer]
Wind variable 1kt
Zicht >10km
Weer -
Wolken Clouds and Visibility OK
Luchtdruk 1015
Wijzigen No Significant change
Ruw LERI 270830Z VRB01KT CAVOK 05/M02 Q1015 NOSIG

VFR

3°C / -2°C

[Meer]
Wind variable 0kt
Zicht >10km
Weer -
Wolken Clouds and Visibility OK
Luchtdruk 1015
Wijzigen No Significant change
Ruw LERI 270800Z 00000KT CAVOK 03/M02 Q1015 NOSIG

VFR

2°C / -3°C

[Meer]
Wind variable 1kt
Zicht >10km
Weer -
Wolken Clouds and Visibility OK
Luchtdruk 1014
Wijzigen No Significant change
Ruw LERI 270730Z VRB01KT CAVOK 02/M03 Q1014 NOSIG

VFR

0°C / -4°C

[Meer]
Wind 10º variable 320º to 070º 3kt
Zicht >10km
Weer -
Wolken Clouds and Visibility OK
Luchtdruk 1014
Wijzigen No Significant change
Ruw LERI 270700Z 01003KT 320V070 CAVOK 00/M04 Q1014 NOSIG

VFR

3°C / -3°C

[Meer]
Wind 270º 5kt
Zicht >10km
Weer -
Wolken Clouds and Visibility OK
Luchtdruk 1014
Wijzigen No Significant change
Ruw LERI 270630Z 27005KT CAVOK 03/M03 Q1014 NOSIG

VFR

1°C / -3°C

[Meer]
Wind 230º 4kt
Zicht >10km
Weer -
Wolken Clouds and Visibility OK
Luchtdruk 1014
Wijzigen No Significant change
Ruw LERI 270600Z 23004KT CAVOK 01/M03 Q1014 NOSIG

VFR

10°C / -1°C

[Meer]
Wind 290º variable 270º to 330º 10kt
Zicht >10km
Weer -
Wolken Clouds and Visibility OK
Luchtdruk 1015
Wijzigen No Significant change
Ruw LERI 261800Z 29010KT 270V330 CAVOK 10/M01 Q1015 NOSIG

VFR

11°C / -2°C

[Meer]
Wind 290º 11kt
Zicht >10km
Weer -
Wolken Few Clouds 6200ft
Luchtdruk 1015
Wijzigen No Significant change
Ruw LERI 261730Z 29011KT 9999 FEW062 11/M02 Q1015 NOSIG

VFR

12°C / -2°C

[Meer]
Wind 300º variable 260º to 330º 12kt
Zicht >10km
Weer -
Wolken Scattered Clouds 5300ft
Luchtdruk 1015
Wijzigen No Significant change
Ruw LERI 261700Z 30012KT 260V330 9999 SCT053 12/M02 Q1015 NOSIG

VFR

13°C / -2°C

[Meer]
Wind 290º variable 250º to 340º 12kt
Zicht >10km
Weer -
Wolken Scattered Clouds 6100ft
Luchtdruk 1015
Wijzigen No Significant change
Ruw LERI 261630Z 29012KT 250V340 9999 SCT061 13/M02 Q1015 NOSIG

VFR

13°C / -2°C

[Meer]
Wind 330º variable 300º to 360º 10kt
Zicht >10km
Weer -
Wolken Scattered Clouds 5500ft
Luchtdruk 1015
Wijzigen No Significant change
Ruw LERI 261600Z 33010KT 300V360 9999 SCT055 13/M02 Q1015 NOSIG

VFR

13°C / -2°C

[Meer]
Wind 290º variable 250º to 330º 13kt
Zicht >10km
Weer -
Wolken Scattered Clouds 5600ft
Luchtdruk 1015
Wijzigen No Significant change
Ruw LERI 261530Z 29013KT 250V330 9999 SCT056 13/M02 Q1015 NOSIG

VFR

13°C / -2°C

[Meer]
Wind 280º variable 250º to 310º 15kt
Zicht >10km
Weer -
Wolken Scattered Clouds 5500ft
Luchtdruk 1015
Wijzigen No Significant change
Ruw LERI 261500Z 28015KT 250V310 9999 SCT055 13/M02 Q1015 NOSIG

VFR

13°C / -2°C

[Meer]
Wind 290º variable 260º to 330º 12kt
Zicht >10km
Weer -
Wolken Scattered Clouds 5400ft
Luchtdruk 1015
Wijzigen No Significant change
Ruw LERI 261430Z 29012KT 260V330 9999 SCT054 13/M02 Q1015 NOSIG

VFR

13°C / -2°C

[Meer]
Wind 330º variable 280º to 020º 8kt
Zicht >10km
Weer -
Wolken Scattered Clouds 5200ft
Luchtdruk 1015
Wijzigen No Significant change
Ruw LERI 261400Z 33008KT 280V020 9999 SCT052 13/M02 Q1015 NOSIG

VFR

12°C / -2°C

[Meer]
Wind 290º variable 240º to 330º 14kt
Zicht >10km
Weer -
Wolken Few Clouds 4800ft
Scattered Clouds 5800ft
Luchtdruk 1015
Wijzigen No Significant change
Ruw LERI 261330Z 29014KT 240V330 9999 FEW048 SCT058 12/M02 Q1015 NOSIG

VFR

12°C / -2°C

[Meer]
Wind 340º variable 300º to 030º 8kt
Zicht >10km
Weer -
Wolken Few Clouds 4800ft
Scattered Clouds 5700ft
Luchtdruk 1016
Wijzigen No Significant change
Ruw LERI 261300Z 34008KT 300V030 9999 FEW048 SCT057 12/M02 Q1016 NOSIG

VFR

12°C / -2°C

[Meer]
Wind 320º variable 260º to 350º 12kt
Zicht >10km
Weer -
Wolken Few Clouds 4500ft
Scattered Clouds 5700ft
Luchtdruk 1016
Wijzigen No Significant change
Ruw LERI 261230Z 32012KT 260V350 9999 FEW045 SCT057 12/M02 Q1016 NOSIG

VFR

12°C / -2°C

[Meer]
Wind 310º variable 280º to 340º 12kt
Zicht >10km
Weer -
Wolken Few Clouds 4500ft
Luchtdruk 1016
Wijzigen No Significant change
Ruw LERI 261200Z 31012KT 280V340 9999 FEW045 12/M02 Q1016 NOSIG

VFR

12°C / -2°C

[Meer]
Wind 320º variable 280º to 350º 9kt
Zicht >10km
Weer -
Wolken Clouds and Visibility OK
Luchtdruk 1017
Wijzigen No Significant change
Ruw LERI 261130Z 32009KT 280V350 CAVOK 12/M02 Q1017 NOSIG

TAF voor Alcantarilla (LERI)

From till


Maximum Temperature 14ºC on . Minimum Temperature 5ºC on .
From till Wind 260º 6kt. Visibility 10km or more. Few Clouds 3500ft.
Becoming from till Wind 330º 10kt. Visibility 10km or more. Few Clouds 3500ft.

Ruw: TAF LERI 270500Z 2706/2806 26006KT 9999 FEW035 TX14/2714Z TN05/2806Z BECMG 2709/2712 33010KT

Radar en neerslag nowcast voor Alcantarilla

Motregen
Licht
Matig
Zwaar
Zeer zwaar
Hagel

De locatiemarkering is op Alcantarilla geplaatst . Deze animatie toont de neerslagradar voor het afgelopen 1 uur. Motregen of lichte sneeuwval kan onzichtbaar zijn voor de radar. De neerslagintensiteit wordt met kleuren weergegeven, van lichtblauw tot oranje.
Radargegevens bron: AEMET.

Huidige satelliet- en regenbeelden voor Alcantarilla, Spanje

De locatiemarkering is op Alcantarilla geplaatst. [Meer]

Het realtime satellietbeeld combineert zichtbaar licht overdag met infraroodstraling 's nachts. 's Nachts is het beeld niet donker, omdat infraroodstraling temperatuurverschillen kan waarnemen. Helaas zijn lage wolken en mist moeilijk te onderscheiden van grondtemperaturen en kunnen dus 's nachts bijna onzichtbaar zijn. Meteosat-satellietbeelden voor Europa worden elke 5 minuten in real time bijgewerkt. De beelden van GOES-16/GOES-17 (Noord- en Zuid-Amerika) en Himawari (Azië) worden om de 10 minuten bijgewerkt.

De neerslag wordt geschat met behulp van radar en satellieten. Neerslagschattingen van satellieten zijn 's nachts minder nauwkeurig dan overdag. Oranje kruizen geven plaatsten aan waar bliksem werd waargenomen (boven Europa).

Copyright 2023 EUMETSAT / meteoblue. Bliksemgegevens verstrekt door nowcast.

Terug naar boven